This is the latest recevied weather packets stored in our database for station/object F4THN-13. If no packets are shown the sender has not sent any weather packets the latest 10 day(s).
| Time | Temp. | Humidity | Pressure | Rain* | Wind** | Luminosity | Snow |
|---|---|---|---|---|---|---|---|
| 1777624318 | 18.89° C | 62% | 1023.5 hPa | 0 mm | - | - | - |
| 1777622818 | 18.33° C | 63% | 1023.5 hPa | 0 mm | - | - | - |
| 1777621318 | 17.78° C | 67% | 1023.4 hPa | 0 mm | - | - | - |
| 1777619817 | 16.11° C | 70% | 1023.3 hPa | 0 mm | - | - | - |
| 1777618317 | 12.78° C | 78% | 1023 hPa | 0 mm | - | - | - |
| 1777616817 | 12.78° C | 78% | 1023 hPa | 0 mm | - | - | - |
| 1777615317 | 11.67° C | 78% | 1022.6 hPa | 0 mm | - | - | - |
| 1777613817 | 11.11° C | 78% | 1022.5 hPa | 0 mm | - | - | - |
| 1777612316 | 11.11° C | 76% | 1022.3 hPa | 0 mm | - | - | - |
| 1777610816 | 11.11° C | 76% | 1022.1 hPa | 0 mm | - | - | - |
| 1777609316 | 11.11° C | 75% | 1021.9 hPa | 0 mm | - | - | - |
| 1777607816 | 11.11° C | 75% | 1021.9 hPa | 0 mm | - | - | - |
| 1777606316 | 11.67° C | 75% | 1021.9 hPa | 0 mm | - | - | - |
| 1777604816 | 11.67° C | 74% | 1021.6 hPa | 0 mm | - | - | - |
| 1777603316 | 12.22° C | 72% | 1021.4 hPa | 0 mm | - | - | - |
| 1777601815 | 12.22° C | 72% | 1021.4 hPa | 0 mm | - | - | - |
| 1777600315 | 12.22° C | 71% | 1021.4 hPa | 0 mm | - | - | - |
| 1777598815 | 12.22° C | 71% | 1021.5 hPa | 0 mm | - | - | - |
| 1777597315 | 13.33° C | 69% | 1021.7 hPa | 0 mm | - | - | - |
| 1777595815 | 13.33° C | 69% | 1021.5 hPa | 0 mm | - | - | - |
| 1777594315 | 13.33° C | 68% | 1021.4 hPa | 0 mm | - | - | - |
| 1777592814 | 13.89° C | 67% | 1021.1 hPa | 0 mm | - | - | - |
| 1777591314 | 14.44° C | 65% | 1021.2 hPa | 0 mm | - | - | - |
| 1777589814 | 14.44° C | 65% | 1021.1 hPa | 0 mm | - | - | - |
| 1777588314 | 15° C | 64% | 1020.9 hPa | 0 mm | - | - | - |
* Rain latest hour (hover to see other rain measurements)
** Current wind speed in m/s (hover to see current wind gust speed)